Time;durP1;ratioP1;P1;durP2;ratioP2;P2;SDS_P1;SDS_P2;PMS_P1;PMS_P2;Temp;Humidity;BMP_temperature;BMP_pressure;BME280_temperature;BME280_humidity;BME280_pressure;Samples;Min_cycle;Max_cycle;Signal;HPM_P1;HPM_P2
2022/03/16 00:00:15;;;;;;;;;;;2.80;99.90;;;0.93;100.00;102080.00;2566397;30;139119;-41
2022/03/16 00:02:46;;;;;;;;;;;2.70;99.90;;;0.87;100.00;102088.56;2568444;30;137774;-40
2022/03/16 00:05:14;;;;;;;;;;;2.70;99.90;;;0.81;100.00;102081.81;2568724;30;139162;-41
2022/03/16 00:07:42;;;;;;;;;;;2.60;99.90;;;0.76;100.00;102083.13;2568660;30;137840;-40
2022/03/16 00:10:10;;;;;;;;;;;2.60;99.90;;;0.75;100.00;102090.34;2567979;30;138973;-40
2022/03/16 00:12:40;;;;;;;;;;;2.60;99.90;;;0.72;100.00;102082.53;2568093;30;137149;-41
2022/03/16 00:15:09;;;;;;;;;;;2.50;99.90;;;0.65;100.00;102078.56;2567339;30;138492;-40
2022/03/16 00:17:36;;;;;;;;;;;2.50;99.90;;;0.62;100.00;102082.34;2569234;30;136991;-40
2022/03/16 00:20:04;;;;;;;;;;;2.40;99.90;;;0.60;100.00;102084.31;2568598;30;138410;-40
2022/03/16 00:22:32;;;;;;;;;;;2.40;99.90;;;0.52;100.00;102070.56;2568157;30;137177;-40
2022/03/16 00:24:59;;;;;;;;;;;2.40;99.90;;;0.67;100.00;102077.47;2566734;30;139321;-41
2022/03/16 00:27:26;;;;;;;;;;;2.40;99.90;;;0.74;100.00;102083.25;2568196;30;137179;-41
2022/03/16 00:29:54;;;;;;;;;;;2.50;99.90;;;0.75;100.00;102078.72;2568154;30;137338;-40
2022/03/16 00:32:21;;;;;;;;;;;2.50;99.90;;;0.76;100.00;102077.75;2568180;30;136906;-41
2022/03/16 00:34:49;;;;;;;;;;;2.50;99.90;;;0.86;100.00;102081.47;2568148;30;138255;-40
2022/03/16 00:37:16;;;;;;;;;;;2.60;99.90;;;0.91;100.00;102083.78;2568266;30;139384;-40
2022/03/16 00:39:43;;;;;;;;;;;2.60;99.90;;;0.76;100.00;102086.69;2568164;30;139043;-40
2022/03/16 00:42:11;;;;;;;;;;;2.50;99.90;;;0.69;100.00;102080.91;2565470;30;137206;-40
2022/03/16 00:44:38;;;;;;;;;;;2.50;99.90;;;0.63;100.00;102091.25;2566975;30;138392;-41
2022/03/16 00:47:07;;;;;;;;;;;2.40;99.90;;;0.56;100.00;102088.19;2566459;38;137205;-41
2022/03/16 00:49:34;;;;;;;;;;;2.40;99.90;;;0.54;100.00;102085.63;2568751;30;138921;-40
2022/03/16 00:52:03;;;;;;;;;;;2.40;99.90;;;0.53;100.00;102086.59;2568563;30;136692;-40
2022/03/16 00:54:31;;;;;;;;;;;2.40;99.90;;;0.54;100.00;102093.66;2568905;30;138646;-41
2022/03/16 00:57:01;;;;;;;;;;;2.40;99.90;;;0.50;100.00;102084.13;2568697;30;137181;-40
2022/03/16 00:59:28;;;;;;;;;;;2.30;99.90;;;0.47;100.00;102081.69;2567703;30;138520;-41
2022/03/16 01:01:57;;;;;;;;;;;2.30;99.90;;;0.47;100.00;102087.06;2568574;30;136938;-40
2022/03/16 01:04:29;;;;;;;;;;;2.30;99.90;;;0.42;100.00;102075.81;2567120;30;137393;-40
2022/03/16 01:06:57;;;;;;;;;;;2.20;99.90;;;0.38;100.00;102082.34;2568454;30;137363;-40
2022/03/16 01:09:27;;;;;;;;;;;2.20;99.90;;;0.45;100.00;102077.38;2569194;30;138361;-41
2022/03/16 01:11:55;;;;;;;;;;;2.20;99.90;;;0.44;100.00;102073.88;2569265;30;138615;-40
2022/03/16 01:14:22;;;;;;;;;;;2.20;99.90;;;0.35;100.00;102078.09;2569415;30;138339;-40
2022/03/16 01:16:49;;;;;;;;;;;2.10;99.90;;;0.27;100.00;102072.44;2566563;30;136937;-40
2022/03/16 01:19:17;;;;;;;;;;;2.00;99.90;;;0.16;100.00;102075.91;2568579;30;138296;-41
2022/03/16 01:21:48;;;;;;;;;;;2.00;99.90;;;0.10;100.00;102070.97;2569511;30;136898;-41
2022/03/16 01:24:16;;;;;;;;;;;1.90;99.90;;;0.01;100.00;102067.16;2567597;30;138691;-41
2022/03/16 01:26:43;;;;;;;;;;;1.90;99.90;;;-0.45;100.00;102002.47;2577920;30;139512;-39
2022/03/16 01:29:11;;;;;;;;;;;1.80;99.90;;;-0.04;100.00;102072.00;2568047;30;137309;-41
2022/03/16 01:31:38;;;;;;;;;;;1.80;99.90;;;-0.04;100.00;102070.19;2569099;30;138014;-42
2022/03/16 01:34:06;;;;;;;;;;;1.80;99.90;;;-0.02;100.00;102072.72;2570567;30;138406;-42
2022/03/16 01:36:33;;;;;;;;;;;1.80;99.90;;;-0.02;100.00;102073.59;2567376;30;137403;-41
2022/03/16 01:39:01;;;;;;;;;;;1.80;99.90;;;-0.04;100.00;102072.00;2571897;30;139079;-41
2022/03/16 01:41:28;;;;;;;;;;;1.80;99.90;;;-0.20;100.00;102051.66;2570419;30;139009;-41
2022/03/16 01:43:57;;;;;;;;;;;1.80;99.90;;;-0.08;100.00;102067.81;2569744;30;139158;-41
2022/03/16 01:46:25;;;;;;;;;;;1.70;99.90;;;-0.13;100.00;102068.19;2568145;30;138053;-42
2022/03/16 01:48:52;;;;;;;;;;;1.70;99.90;;;-0.16;100.00;102069.25;2571000;30;140522;-41
2022/03/16 01:51:21;;;;;;;;;;;1.70;99.90;;;-0.18;100.00;102063.13;2570912;30;137159;-42
2022/03/16 01:53:49;;;;;;;;;;;1.70;99.90;;;-0.19;100.00;102071.28;2570634;30;138136;-41
2022/03/16 01:56:17;;;;;;;;;;;1.70;99.90;;;-0.19;100.00;102065.91;2571286;30;139589;-41
2022/03/16 01:58:45;;;;;;;;;;;1.60;99.90;;;-0.22;100.00;102069.69;2567875;30;140374;-41
2022/03/16 02:01:17;;;;;;;;;;;1.60;99.90;;;-0.15;100.00;102062.03;2569391;30;138508;-41
2022/03/16 02:03:44;;;;;;;;;;;1.60;99.90;;;0.05;100.00;102070.47;2569964;30;139936;-42
2022/03/16 02:06:13;;;;;;;;;;;1.70;99.90;;;0.13;100.00;102057.31;2570758;30;136664;-42
2022/03/16 02:08:41;;;;;;;;;;;1.80;99.90;;;0.35;100.00;102058.41;2569216;30;138271;-42
2022/03/16 02:11:08;;;;;;;;;;;2.00;99.90;;;0.46;100.00;102061.19;2570183;30;137180;-42
2022/03/16 02:13:36;;;;;;;;;;;2.10;99.90;;;0.43;100.00;102046.13;2569407;30;139011;-42
2022/03/16 02:16:04;;;;;;;;;;;2.10;99.90;;;0.42;100.00;102036.38;2572142;30;136963;-41
2022/03/16 02:18:32;;;;;;;;;;;2.10;99.90;;;0.53;100.00;102037.38;2570149;30;138278;-44
2022/03/16 02:21:02;;;;;;;;;;;2.20;99.90;;;0.59;100.00;102047.66;2569482;30;136930;-41
2022/03/16 02:23:30;;;;;;;;;;;2.30;99.90;;;0.63;100.00;102043.78;2567867;30;137873;-41
2022/03/16 02:25:58;;;;;;;;;;;2.30;99.90;;;0.60;100.00;102040.47;2567737;30;137899;-42
2022/03/16 02:28:26;;;;;;;;;;;2.30;99.90;;;0.68;100.00;102046.97;2570396;30;138594;-42
2022/03/16 02:30:54;;;;;;;;;;;2.40;99.90;;;0.68;100.00;102046.97;2571432;30;137441;-41
2022/03/16 02:33:22;;;;;;;;;;;2.40;99.90;;;0.63;100.00;102046.47;2571122;30;138596;-42
2022/03/16 02:35:50;;;;;;;;;;;2.40;99.90;;;0.52;100.00;102043.72;2570955;30;137191;-42
2022/03/16 02:38:18;;;;;;;;;;;2.30;99.90;;;0.47;100.00;102041.41;2569247;30;138456;-42
2022/03/16 02:40:45;;;;;;;;;;;2.30;99.90;;;0.42;100.00;102038.22;2569260;30;137155;-42
2022/03/16 02:43:13;;;;;;;;;;;2.20;99.90;;;0.38;100.00;102037.56;2567188;30;138478;-42
2022/03/16 02:45:40;;;;;;;;;;;2.20;99.90;;;0.36;100.00;102042.22;2570325;30;137479;-42
2022/03/16 02:48:08;;;;;;;;;;;2.20;99.90;;;0.40;100.00;102054.44;2570726;30;138587;-42
2022/03/16 02:50:35;;;;;;;;;;;2.20;99.90;;;0.34;100.00;102040.59;2570928;30;137104;-42
2022/03/16 02:53:03;;;;;;;;;;;2.20;99.90;;;0.35;100.00;102045.88;2569435;30;138357;-41
2022/03/16 02:55:46;;;;;;;;;;;2.10;99.90;;;0.36;100.00;102042.22;2570516;30;137267;-42
2022/03/16 02:58:15;;;;;;;;;;;2.10;99.90;;;0.40;100.00;102038.31;2570460;30;138428;-39
2022/03/16 03:00:42;;;;;;;;;;;2.20;99.90;;;0.42;100.00;102038.22;2569017;30;138215;-42
2022/03/16 03:03:10;;;;;;;;;;;2.20;99.90;;;0.41;100.00;102036.50;2569962;30;138907;-43
2022/03/16 03:05:38;;;;;;;;;;;2.20;99.90;;;0.39;100.00;102035.72;2569105;30;137201;-41
2022/03/16 03:08:05;;;;;;;;;;;2.20;99.90;;;0.52;100.00;102024.91;2569684;30;138348;-41
2022/03/16 03:10:32;;;;;;;;;;;2.30;99.90;;;0.53;100.00;102024.81;2572193;30;137678;-41
2022/03/16 03:13:00;;;;;;;;;;;2.30;99.90;;;0.55;100.00;102024.72;2567415;30;138322;-41
2022/03/16 03:15:27;;;;;;;;;;;2.30;99.90;;;0.55;100.00;102027.41;2568957;30;137088;-41
2022/03/16 03:17:55;;;;;;;;;;;2.30;99.90;;;0.58;100.00;102035.22;2568944;30;139016;-42
2022/03/16 03:20:22;;;;;;;;;;;2.30;99.90;;;0.54;100.00;102031.06;2567570;30;137336;-38
2022/03/16 03:22:50;;;;;;;;;;;2.30;99.90;;;0.61;100.00;102029.59;2570537;30;137500;-39
2022/03/16 03:25:17;;;;;;;;;;;2.30;99.90;;;0.62;100.00;102025.06;2571864;30;138042;-40
2022/03/16 03:27:44;;;;;;;;;;;2.30;99.90;;;0.57;100.00;102028.13;2569883;30;138339;-40
2022/03/16 03:30:12;;;;;;;;;;;2.30;99.90;;;0.56;100.00;102027.25;2568518;30;137742;-40
2022/03/16 03:32:39;;;;;;;;;;;2.30;99.90;;;0.56;100.00;102029.09;2570534;30;138091;-42
2022/03/16 03:35:07;;;;;;;;;;;2.30;99.90;;;0.55;100.00;102030.09;2569671;30;137008;-40
2022/03/16 03:37:36;;;;;;;;;;;2.30;99.90;;;0.70;100.00;102017.31;2570023;30;138451;-39
2022/03/16 03:40:05;;;;;;;;;;;2.40;99.90;;;0.82;100.00;102021.72;2569261;30;137270;-41
2022/03/16 03:42:32;;;;;;;;;;;2.50;99.90;;;0.75;100.00;102019.63;2566511;30;138701;-42
2022/03/16 03:45:00;;;;;;;;;;;2.50;99.90;;;0.79;100.00;102021.09;2569047;30;136929;-42
2022/03/16 03:47:28;;;;;;;;;;;2.50;99.90;;;0.79;100.00;102023.78;2568390;30;139122;-41
2022/03/16 03:49:55;;;;;;;;;;;2.50;99.90;;;0.75;100.00;102031.25;2569577;30;137859;-41
2022/03/16 03:52:22;;;;;;;;;;;2.50;99.90;;;0.79;100.00;102029.16;2570272;30;138887;-42
2022/03/16 03:54:50;;;;;;;;;;;2.50;99.90;;;0.74;100.00;102028.66;2568125;30;137479;-42
2022/03/16 03:57:17;;;;;;;;;;;2.50;99.90;;;0.72;100.00;102031.47;2569959;30;139184;-42
2022/03/16 03:59:45;;;;;;;;;;;2.50;99.90;;;0.70;100.00;102041.47;2569731;30;137404;-42
2022/03/16 04:02:12;;;;;;;;;;;2.40;99.90;;;0.75;100.00;102031.25;2566748;30;138487;-42
2022/03/16 04:04:41;;;;;;;;;;;2.50;99.90;;;0.67;100.00;102023.75;2569379;30;137056;-42
2022/03/16 04:07:08;;;;;;;;;;;2.50;99.90;;;0.71;100.00;102033.28;2568547;30;139221;-42
2022/03/16 04:09:36;;;;;;;;;;;2.50;99.90;;;0.71;100.00;102027.91;2566731;30;136818;-42
2022/03/16 04:12:03;;;;;;;;;;;2.50;99.90;;;0.70;100.00;102028.88;2569462;30;139162;-42
2022/03/16 04:14:31;;;;;;;;;;;2.50;99.90;;;0.70;100.00;102045.00;2567095;30;137436;-42
2022/03/16 04:16:59;;;;;;;;;;;2.50;99.90;;;0.61;100.00;102039.47;2569187;30;138165;-43
2022/03/16 04:19:27;;;;;;;;;;;2.40;99.90;;;0.56;100.00;102042.53;2569891;30;137431;-42
2022/03/16 04:21:54;;;;;;;;;;;2.40;99.90;;;0.52;100.00;102049.97;2568376;30;139374;-42
2022/03/16 04:24:21;;;;;;;;;;;2.30;99.90;;;0.40;100.00;102038.31;2567493;30;137775;-42
2022/03/16 04:26:49;;;;;;;;;;;2.30;99.90;;;0.33;100.00;102055.88;2570465;30;137238;-41
2022/03/16 04:29:16;;;;;;;;;;;2.20;99.90;;;0.23;100.00;102057.50;2570297;30;137771;-42
2022/03/16 04:31:43;;;;;;;;;;;2.10;99.90;;;0.11;100.00;102044.03;2567455;30;137394;-42
2022/03/16 04:34:11;;;;;;;;;;;2.00;99.90;;;0.04;100.00;102055.34;2569277;30;137114;-41
2022/03/16 04:36:38;;;;;;;;;;;1.90;99.90;;;-0.03;100.00;102052.25;2570189;30;137235;-42
2022/03/16 04:39:06;;;;;;;;;;;1.80;99.90;;;-0.08;100.00;102049.91;2570163;30;136989;-42
2022/03/16 04:41:33;;;;;;;;;;;1.80;99.90;;;-0.14;100.00;102053.03;2568696;30;138205;-42
2022/03/16 04:44:01;;;;;;;;;;;1.70;99.90;;;-0.20;100.00;102050.78;2569582;30;137184;-41
2022/03/16 04:46:28;;;;;;;;;;;1.70;99.90;;;-0.22;100.00;102053.59;2570285;30;138388;-41
2022/03/16 04:48:57;;;;;;;;;;;1.60;99.90;;;-0.20;100.00;102048.97;2569485;30;137046;-42
2022/03/16 04:51:24;;;;;;;;;;;1.60;99.90;;;-0.17;100.00;102051.44;2570076;30;137256;-42
2022/03/16 04:53:52;;;;;;;;;;;1.60;99.90;;;-0.20;100.00;102050.78;2567276;30;137449;-42
2022/03/16 04:56:19;;;;;;;;;;;1.60;99.90;;;-0.26;100.00;102049.44;2570272;30;138049;-43
2022/03/16 04:58:46;;;;;;;;;;;1.60;99.90;;;-0.30;100.00;102053.28;2569164;30;137732;-41
2022/03/16 05:01:14;;;;;;;;;;;1.50;99.90;;;-0.33;100.00;102048.13;2568987;30;138276;-42
2022/03/16 05:03:41;;;;;;;;;;;1.50;99.90;;;-0.34;100.00;102044.63;2570321;30;136940;-44
2022/03/16 05:06:12;;;;;;;;;;;1.50;99.90;;;-0.30;100.00;102046.09;2569096;30;138218;-42
2022/03/16 05:08:39;;;;;;;;;;;1.50;99.90;;;-0.33;100.00;102043.66;2569818;30;137280;-41
2022/03/16 05:11:06;;;;;;;;;;;1.50;99.90;;;-0.27;100.00;102045.00;2567104;30;137861;-41
2022/03/16 05:13:34;;;;;;;;;;;1.50;99.90;;;-0.31;100.00;102041.72;2570552;30;137212;-43
2022/03/16 05:16:02;;;;;;;;;;;1.50;99.90;;;-0.14;100.00;102047.66;2571041;30;138274;-42
2022/03/16 05:18:29;;;;;;;;;;;1.60;99.90;;;-0.11;100.00;102051.94;2569667;30;137895;-42
2022/03/16 05:20:57;;;;;;;;;;;1.60;99.90;;;-0.16;100.00;102039.72;2570754;30;138338;-41
2022/03/16 05:23:24;;;;;;;;;;;1.60;99.90;;;-0.18;100.00;102043.47;2566534;30;137160;-42
2022/03/16 05:25:52;;;;;;;;;;;1.60;99.90;;;-0.15;100.00;102044.13;2569642;30;138323;-42
2022/03/16 05:28:19;;;;;;;;;;;1.60;99.90;;;-0.24;100.00;102047.50;2569134;30;137880;-41
2022/03/16 05:30:47;;;;;;;;;;;1.60;99.90;;;-0.30;100.00;102042.56;2567401;30;139231;-44
2022/03/16 05:33:15;;;;;;;;;;;1.50;99.90;;;-0.36;100.00;102041.19;2571429;30;137112;-43
2022/03/16 05:35:42;;;;;;;;;;;1.50;99.90;;;-0.42;100.00;102046.13;2568534;30;139270;-41
2022/03/16 05:38:12;;;;;;;;;;;1.40;99.90;;;-0.45;100.00;102052.56;2567325;30;137027;-42
2022/03/16 05:40:41;;;;;;;;;;;1.40;99.90;;;-0.47;100.00;102050.00;2568926;30;137967;-42
2022/03/16 05:43:10;;;;;;;;;;;1.40;99.90;;;-0.49;100.00;102054.63;2569595;30;137714;-42
2022/03/16 05:45:38;;;;;;;;;;;1.40;99.90;;;-0.50;100.00;102058.28;2569413;30;139107;-44
2022/03/16 05:48:05;;;;;;;;;;;1.30;99.90;;;-0.45;100.00;102057.91;2568945;30;137248;-42
2022/03/16 05:50:33;;;;;;;;;;;1.30;99.90;;;-0.44;100.00;102059.63;2569675;30;139444;-42
2022/03/16 05:53:02;;;;;;;;;;;1.40;99.90;;;-0.44;100.00;102065.88;2568597;30;137459;-42
2022/03/16 05:55:30;;;;;;;;;;;1.40;99.90;;;-0.42;100.00;102063.06;2570506;30;137253;-43
2022/03/16 05:57:57;;;;;;;;;;;1.40;99.90;;;-0.36;100.00;102056.41;2570433;30;137380;-41
2022/03/16 06:00:25;;;;;;;;;;;1.40;99.90;;;-0.35;100.00;102063.50;2570755;30;138390;-42
2022/03/16 06:02:52;;;;;;;;;;;1.40;99.90;;;-0.31;100.00;102057.81;2570045;30;137165;-41
2022/03/16 06:05:24;;;;;;;;;;;1.40;99.90;;;-0.19;100.00;102065.91;2569579;30;138161;-42
2022/03/16 06:07:51;;;;;;;;;;;1.60;99.90;;;-0.06;100.00;102074.81;2570238;30;136994;-42
2022/03/16 06:10:19;;;;;;;;;;;1.60;99.90;;;0.03;100.00;102070.59;2569034;30;138187;-43
2022/03/16 06:13:04;;;;;;;;;;;1.80;99.90;;;0.16;100.00;102064.31;2568573;30;137262;-41
2022/03/16 06:15:38;;;;;;;;;;;1.80;99.90;;;0.31;100.00;102062.31;2570664;30;138232;-42
2022/03/16 06:18:06;;;;;;;;;;;2.00;99.90;;;0.55;100.00;102057.78;2569784;30;138359;-42
2022/03/16 06:20:34;;;;;;;;;;;2.10;99.90;;;0.71;100.00;102062.84;2568391;30;138231;-43
2022/03/16 06:23:04;;;;;;;;;;;2.30;99.90;;;0.81;100.00;102052.25;2569649;30;137200;-41
2022/03/16 06:25:35;;;;;;;;;;;2.40;99.90;;;0.92;100.00;102046.03;2567267;30;139104;-42
2022/03/16 06:28:03;;;;;;;;;;;2.50;99.90;;;1.04;100.00;102049.63;2568994;30;137198;-42
2022/03/16 06:30:31;;;;;;;;;;;2.70;99.90;;;1.13;100.00;102040.81;2569246;30;137096;-41
2022/03/16 06:32:58;;;;;;;;;;;2.70;99.90;;;1.35;100.00;102049.03;2569499;30;137480;-42
2022/03/16 06:35:26;;;;;;;;;;;2.90;99.90;;;1.46;100.00;102051.72;2568921;30;138924;-43
2022/03/16 06:37:53;;;;;;;;;;;3.00;99.90;;;1.53;100.00;102052.94;2570412;30;137160;-42
2022/03/16 06:40:21;;;;;;;;;;;3.10;99.90;;;1.83;100.00;102058.69;2568503;30;139781;-41
2022/03/16 06:42:54;;;;;;;;;;;3.30;99.90;;;1.91;100.00;102055.38;2570384;30;137366;-42
2022/03/16 06:45:23;;;;;;;;;;;3.50;99.90;;;1.99;100.00;102051.06;2567607;30;139142;-42
2022/03/16 06:47:54;;;;;;;;;;;3.50;99.90;;;2.07;100.00;102054.97;2567141;30;137448;-42
2022/03/16 06:50:22;;;;;;;;;;;3.60;99.90;;;2.30;100.00;102061.13;2570140;30;137383;-41
2022/03/16 06:52:50;;;;;;;;;;;3.80;99.90;;;2.43;100.00;102064.53;2568471;30;137926;-42
2022/03/16 06:55:17;;;;;;;;;;;3.90;99.90;;;2.53;100.00;102055.66;2571388;30;138846;-42
2022/03/16 06:57:44;;;;;;;;;;;4.00;99.90;;;2.76;100.00;102060.94;2568117;30;137216;-40
2022/03/16 07:00:13;;;;;;;;;;;4.20;99.90;;;2.92;100.00;102072.16;2570761;30;138808;-41
2022/03/16 07:02:57;;;;;;;;;;;4.40;99.90;;;3.16;100.00;102074.56;2569229;30;138221;-41
2022/03/16 07:05:36;;;;;;;;;;;4.60;99.90;;;3.37;100.00;102070.97;2570924;30;138311;-41
2022/03/16 07:08:07;;;;;;;;;;;4.80;99.90;;;3.54;100.00;102074.91;2568534;30;137871;-42
2022/03/16 07:10:36;;;;;;;;;;;4.90;99.90;;;3.68;100.00;102078.19;2569442;30;138393;-41
2022/03/16 07:13:10;;;;;;;;;;;5.10;99.90;;;3.80;100.00;102077.13;2569714;30;137268;-42
2022/03/16 07:15:40;;;;;;;;;;;5.20;99.90;;;3.94;100.00;102067.78;2570498;30;138190;-43
2022/03/16 07:18:08;;;;;;;;;;;5.40;99.90;;;4.06;100.00;102064.97;2568766;30;137014;-41
2022/03/16 07:20:36;;;;;;;;;;;5.50;99.90;;;4.10;100.00;102060.97;2568672;30;139066;-42
2022/03/16 07:23:15;;;;;;;;;;;5.60;99.90;;;4.17;100.00;102073.78;2570110;30;137070;-42
2022/03/16 07:25:45;;;;;;;;;;;5.70;99.90;;;4.25;100.00;102067.69;2567435;30;139508;-42
2022/03/16 07:28:15;;;;;;;;;;;5.70;99.90;;;4.40;100.00;102070.00;2580263;30;137036;-41
2022/03/16 07:30:43;;;;;;;;;;;5.80;99.90;;;4.53;100.00;102077.84;2568475;30;138347;-41
2022/03/16 07:33:12;;;;;;;;;;;6.00;99.90;;;4.62;100.00;102071.56;2568338;30;137762;-41
2022/03/16 07:35:40;;;;;;;;;;;6.10;99.90;;;4.78;100.00;102070.16;2569241;30;138151;-40
2022/03/16 07:38:08;;;;;;;;;;;6.20;99.90;;;4.92;100.00;102063.44;2568775;30;137277;-41
2022/03/16 07:40:37;;;;;;;;;;;6.30;99.90;;;5.06;100.00;102059.44;2567765;30;139204;-40
2022/03/16 07:43:05;;;;;;;;;;;6.50;99.90;;;5.18;100.00;102060.97;2567975;30;136977;-41
2022/03/16 07:45:34;;;;;;;;;;;6.60;99.90;;;5.28;100.00;102050.94;2569294;30;138262;-41
2022/03/16 07:48:02;;;;;;;;;;;6.70;99.90;;;5.43;100.00;102056.72;2567320;30;137227;-41
2022/03/16 07:50:30;;;;;;;;;;;6.80;99.90;;;5.55;100.00;102046.56;2567810;30;138490;-41
2022/03/16 07:52:58;;;;;;;;;;;6.90;99.90;;;5.64;100.00;102044.00;2568951;30;136749;-41
2022/03/16 07:55:26;;;;;;;;;;;7.00;99.90;;;5.77;100.00;102041.75;2568587;30;138557;-41
2022/03/16 07:57:55;;;;;;;;;;;7.20;99.90;;;5.91;100.00;102040.41;2568494;30;137195;-41
2022/03/16 08:00:23;;;;;;;;;;;7.30;99.90;;;6.02;100.00;102053.78;2567307;30;139046;-40
2022/03/16 08:02:55;;;;;;;;;;;7.40;99.90;;;6.27;100.00;102042.34;2566373;30;138048;-40
2022/03/16 08:05:23;;;;;;;;;;;7.60;99.90;;;6.43;100.00;102045.22;2566647;30;138889;-41
2022/03/16 08:07:51;;;;;;;;;;;7.70;99.90;;;6.63;100.00;102036.94;2568276;30;136823;-41
2022/03/16 08:10:19;;;;;;;;;;;7.90;99.90;;;6.73;100.00;102044.97;2567860;30;139417;-41
2022/03/16 08:12:46;;;;;;;;;;;8.00;99.90;;;6.88;97.63;102042.53;2567872;30;138021;-41
2022/03/16 08:15:14;;;;;;;;;;;8.20;99.90;;;6.98;97.99;102042.44;2568941;30;138250;-41
2022/03/16 08:17:41;;;;;;;;;;;8.30;99.90;;;7.10;96.56;102040.31;2564639;30;137862;-41
2022/03/16 08:20:09;;;;;;;;;;;8.50;99.90;;;7.13;95.48;102031.84;2567454;30;139017;-41
2022/03/16 08:22:36;;;;;;;;;;;8.50;99.90;;;7.27;94.88;102042.13;2567708;30;137161;-41
2022/03/16 08:25:10;;;;;;;;;;;8.60;99.90;;;7.40;94.30;102046.25;2567740;30;138269;-41
2022/03/16 08:27:39;;;;;;;;;;;8.70;99.90;;;7.53;93.79;102046.66;2568877;30;136653;-41
2022/03/16 08:30:08;;;;;;;;;;;8.80;99.90;;;7.65;93.41;102049.09;2568500;30;138357;-41
2022/03/16 08:32:36;;;;;;;;;;;8.90;99.90;;;7.76;92.10;102041.50;2565686;30;138471;-41
2022/03/16 08:35:06;;;;;;;;;;;9.10;99.90;;;7.88;90.37;102041.22;2568926;30;137508;-42
2022/03/16 08:37:34;;;;;;;;;;;9.20;99.90;;;7.96;90.48;102033.06;2568922;30;138318;-42
2022/03/16 08:40:04;;;;;;;;;;;9.30;99.90;;;8.08;88.40;102033.63;2567646;30;136875;-42
2022/03/16 08:42:31;;;;;;;;;;;9.40;99.90;;;8.20;89.98;102035.00;2568628;30;137121;-41
2022/03/16 08:44:59;;;;;;;;;;;9.50;99.90;;;8.34;89.52;102028.03;2568944;30;138216;-41
2022/03/16 08:47:26;;;;;;;;;;;9.60;99.90;;;8.51;89.17;102033.53;2568015;30;136942;-41
2022/03/16 08:49:55;;;;;;;;;;;9.70;99.90;;;8.59;85.87;102033.53;2564922;30;138177;-41
2022/03/16 08:52:22;;;;;;;;;;;9.90;99.90;;;8.63;87.12;102031.34;2568223;30;137715;-42
2022/03/16 08:54:50;;;;;;;;;;;9.90;99.90;;;8.66;85.81;102025.53;2566220;30;137171;-41
2022/03/16 08:57:20;;;;;;;;;;;10.00;99.90;;;8.65;85.17;102023.84;2568463;30;137921;-41
2022/03/16 08:59:48;;;;;;;;;;;10.00;99.90;;;8.71;83.89;102031.31;2567852;30;139079;-41
2022/03/16 09:02:15;;;;;;;;;;;10.10;99.90;;;8.81;84.30;102028.44;2566697;30;136826;-41
2022/03/16 09:04:43;;;;;;;;;;;10.10;99.90;;;8.84;82.37;102025.38;2569250;30;139071;-41
2022/03/16 09:07:10;;;;;;;;;;;10.20;99.90;;;8.94;84.81;102017.03;2569336;30;136978;-41
2022/03/16 09:09:40;;;;;;;;;;;10.20;99.90;;;8.93;83.71;102009.88;2567563;30;138264;-41
2022/03/16 09:12:11;;;;;;;;;;;10.30;99.90;;;8.99;81.61;102013.78;2568958;30;137442;-42
2022/03/16 09:14:39;;;;;;;;;;;10.30;99.90;;;9.01;82.14;102014.47;2567668;30;138256;-41
2022/03/16 09:17:10;;;;;;;;;;;10.40;99.90;;;9.01;82.48;102012.56;2569187;30;137867;-41
2022/03/16 09:19:38;;;;;;;;;;;10.40;99.90;;;9.23;83.38;102018.31;2567511;30;139063;-41
2022/03/16 09:22:06;;;;;;;;;;;10.50;99.90;;;9.38;81.97;102025.78;2569231;30;137121;-41
2022/03/16 09:24:33;;;;;;;;;;;10.60;99.90;;;9.46;80.81;102020.28;2567593;30;137631;-41
2022/03/16 09:27:01;;;;;;;;;;;10.70;99.90;;;9.61;80.83;102023.13;2568718;30;137054;-41
2022/03/16 09:29:29;;;;;;;;;;;10.80;99.90;;;9.83;81.87;102017.94;2569241;30;137739;-41
2022/03/16 09:32:04;;;;;;;;;;;10.90;99.90;;;9.95;80.84;102024.69;2568988;30;136774;-41
2022/03/16 09:34:31;;;;;;;;;;;11.10;99.90;;;10.08;80.28;102030.38;2568824;30;137307;-41
2022/03/16 09:36:59;;;;;;;;;;;11.20;99.90;;;10.17;78.18;102027.59;2569258;30;137032;-41
2022/03/16 09:39:27;;;;;;;;;;;11.30;99.90;;;10.21;78.30;102037.13;2568305;30;138919;-41
2022/03/16 09:41:56;;;;;;;;;;;11.40;99.90;;;10.19;78.40;102041.91;2568394;30;137205;-41
2022/03/16 09:44:24;;;;;;;;;;;11.40;99.90;;;10.19;78.30;102041.91;2567246;30;138570;-41
2022/03/16 09:46:54;;;;;;;;;;;11.40;99.90;;;10.22;77.73;102042.41;2569168;30;137794;-41
2022/03/16 09:49:22;;;;;;;;;;;11.40;99.90;;;10.34;78.40;102041.97;2568071;30;137590;-41
2022/03/16 09:51:50;;;;;;;;;;;;;;;10.39;77.97;102035.97;2568531;30;137088;-42
2022/03/16 09:54:18;;;;;;;;;;;;;;;10.45;78.35;102038.88;2568689;30;139174;-41
2022/03/16 09:56:47;;;;;;;;;;;;;;;10.48;77.47;102046.69;2570035;30;136699;-41
2022/03/16 09:59:15;;;;;;;;;;;;;;;10.57;76.98;102047.47;2567895;30;139204;-41
2022/03/16 10:01:43;;;;;;;;;;;;;;;10.56;76.09;102023.09;2568498;30;137152;-41
2022/03/16 10:04:11;;;;;;;;;;;;;;;10.55;74.72;102024.13;2568599;30;138212;-41
2022/03/16 10:06:40;;;;;;;;;;;;;;;10.47;73.04;102023.16;2568827;30;136856;-41
2022/03/16 10:15:19;;;;;;;;;;;;;;;10.76;74.54;102009.81;2569481;30;138093;-41
2022/03/16 10:17:48;;;;;;;;;;;;;;;10.83;72.46;101998.97;2566151;30;137497;-41
2022/03/16 10:20:20;;;;;;;;;;;;;;;10.87;72.96;101992.09;2568265;30;139068;-41
2022/03/16 10:23:08;;;;;;;;;;;11.50;99.90;;;10.82;72.15;102005.47;2568008;30;137166;-41
2022/03/16 10:25:41;;;;;;;;;;;12.20;99.90;;;10.81;72.35;102006.50;2568532;30;138309;-41
2022/03/16 10:28:21;;;;;;;;;;;12.20;99.90;;;10.91;71.91;102015.28;2568625;30;137349;-41
2022/03/16 10:31:05;;;;;;;;;;;12.20;99.90;;;11.08;71.66;102010.50;2568441;30;137514;-41
2022/03/16 10:33:36;;;;;;;;;;;;;;;11.11;69.66;102001.06;2565588;30;137253;-41
2022/03/16 10:36:05;;;;;;;;;;;;;;;11.19;68.79;101999.09;2569733;30;139109;-41
2022/03/16 10:38:37;;;;;;;;;;;;;;;11.25;69.63;101992.06;2568429;30;138190;-41
2022/03/16 10:46:57;;;;;;;;;;;12.60;99.90;;;11.71;67.30;101999.16;2568879;30;138268;-41
2022/03/16 10:49:30;;;;;;;;;;;13.00;99.90;;;11.82;68.41;101986.06;2568418;30;136958;-41
2022/03/16 10:52:02;;;;;;;;;;;13.10;99.90;;;11.82;65.87;101986.06;2567318;30;137857;-41
2022/03/16 10:54:30;;;;;;;;;;;13.10;99.80;;;11.90;67.73;101984.03;2568214;30;137102;-41
2022/03/16 10:57:02;;;;;;;;;;;13.10;99.90;;;12.01;66.66;101993.66;2568700;30;137732;-41
2022/03/16 10:59:32;;;;;;;;;;;13.20;99.90;;;12.18;67.21;101991.50;2567943;30;136905;-41
2022/03/16 11:02:04;;;;;;;;;;;13.40;99.90;;;12.19;65.54;101986.91;2568639;30;138458;-41
2022/03/16 11:04:34;;;;;;;;;;;13.40;99.50;;;12.23;64.60;101994.53;2568510;30;136952;-41
2022/03/16 11:07:03;;;;;;;;;;;13.50;98.80;;;12.28;62.59;101988.44;2568028;30;137493;-41
2022/03/16 11:09:32;;;;;;;;;;;13.50;97.70;;;12.18;63.83;101985.22;2567951;30;137296;-41
2022/03/16 11:14:53;;;;;;;;;;;13.60;97.60;;;12.42;63.98;101980.38;2566861;30;136958;-41
2022/03/16 11:17:22;;;;;;;;;;;13.60;98.30;;;12.49;62.59;101975.81;2568194;30;136932;-41
2022/03/16 11:19:52;;;;;;;;;;;13.70;97.40;;;12.48;62.60;101968.66;2568610;30;136880;-41
2022/03/16 11:24:15;;;;;;;;;;;13.80;97.20;;;12.41;63.54;101974.06;2568813;30;139231;-41
2022/03/16 11:25:26;;;;;;;;;;;13.70;97.60;;;12.40;63.26;101972.34;2568214;30;137171;-42
2022/03/16 11:27:54;;;;;;;;;;;13.70;97.50;;;12.50;63.91;101970.16;2567523;30;139063;-41
2022/03/16 11:30:35;;;;;;;;;;;13.80;97.80;;;12.67;62.26;101964.38;2567995;30;137888;-41
2022/03/16 11:33:06;;;;;;;;;;;13.90;98.10;;;12.84;63.93;101956.69;2567299;30;137943;-41